sensor_id;sensor_type;location;lat;lon;timestamp;pressure;altitude;pressure_sealevel;temperature;humidity
55685;BME280;41883;49.544;8.646;2022-08-03T00:00:43;100521.59;;;21.27;46.11
55685;BME280;41883;49.544;8.646;2022-08-03T00:03:10;100519.78;;;21.21;46.29
55685;BME280;41883;49.544;8.646;2022-08-03T00:05:37;100517.53;;;21.18;46.68
55685;BME280;41883;49.544;8.646;2022-08-03T00:08:04;100523.81;;;21.12;46.83
55685;BME280;41883;49.544;8.646;2022-08-03T00:10:29;100523.28;;;21.03;47.16
55685;BME280;41883;49.544;8.646;2022-08-03T00:12:55;100515.91;;;20.92;47.62
55685;BME280;41883;49.544;8.646;2022-08-03T00:15:21;100515.59;;;20.82;47.69
55685;BME280;41883;49.544;8.646;2022-08-03T00:17:48;100523.09;;;20.73;47.83
55685;BME280;41883;49.544;8.646;2022-08-03T00:20:15;100519.03;;;20.64;47.81
55685;BME280;41883;49.544;8.646;2022-08-03T00:22:41;100512.06;;;20.56;48.30
55685;BME280;41883;49.544;8.646;2022-08-03T00:25:07;100513.13;;;20.48;48.42
55685;BME280;41883;49.544;8.646;2022-08-03T00:27:33;100516.91;;;20.41;49.00
55685;BME280;41883;49.544;8.646;2022-08-03T00:30:00;100515.28;;;20.33;48.84
55685;BME280;41883;49.544;8.646;2022-08-03T00:32:27;100513.25;;;20.28;49.39
55685;BME280;41883;49.544;8.646;2022-08-03T00:34:54;100511.41;;;20.29;49.26
55685;BME280;41883;49.544;8.646;2022-08-03T00:37:20;100503.72;;;20.32;49.20
55685;BME280;41883;49.544;8.646;2022-08-03T00:39:46;100498.34;;;20.32;49.68
55685;BME280;41883;49.544;8.646;2022-08-03T00:42:13;100506.00;;;20.35;49.28
55685;BME280;41883;49.544;8.646;2022-08-03T00:44:41;100502.63;;;20.40;49.07
55685;BME280;41883;49.544;8.646;2022-08-03T00:47:08;100503.00;;;20.50;48.80
55685;BME280;41883;49.544;8.646;2022-08-03T00:49:36;100506.06;;;20.54;48.45
55685;BME280;41883;49.544;8.646;2022-08-03T00:52:02;100506.31;;;20.52;48.64
55685;BME280;41883;49.544;8.646;2022-08-03T00:54:28;100506.09;;;20.47;49.08
55685;BME280;41883;49.544;8.646;2022-08-03T00:56:55;100504.31;;;20.41;49.54
55685;BME280;41883;49.544;8.646;2022-08-03T00:59:21;100496.84;;;20.43;48.94
55685;BME280;41883;49.544;8.646;2022-08-03T01:01:47;100497.03;;;20.48;48.73
55685;BME280;41883;49.544;8.646;2022-08-03T01:04:13;100505.44;;;20.52;48.46
55685;BME280;41883;49.544;8.646;2022-08-03T01:06:51;100500.69;;;20.54;48.54
55685;BME280;41883;49.544;8.646;2022-08-03T01:12:27;100505.03;;;20.55;48.56
55685;BME280;41883;49.544;8.646;2022-08-03T01:18:17;100496.56;;;20.58;48.82
55685;BME280;41883;49.544;8.646;2022-08-03T01:20:48;100495.13;;;20.55;48.49
55685;BME280;41883;49.544;8.646;2022-08-03T01:31:19;100498.44;;;20.51;48.32
55685;BME280;41883;49.544;8.646;2022-08-03T01:33:55;100483.38;;;20.50;48.48
55685;BME280;41883;49.544;8.646;2022-08-03T01:36:25;100484.19;;;20.50;48.46
55685;BME280;41883;49.544;8.646;2022-08-03T01:38:57;100487.69;;;20.51;48.62
55685;BME280;41883;49.544;8.646;2022-08-03T01:41:33;100488.53;;;20.51;48.49
55685;BME280;41883;49.544;8.646;2022-08-03T01:44:02;100483.16;;;20.51;48.63
55685;BME280;41883;49.544;8.646;2022-08-03T01:46:31;100483.78;;;20.47;48.71
55685;BME280;41883;49.544;8.646;2022-08-03T01:48:59;100483.44;;;20.43;48.42
55685;BME280;41883;49.544;8.646;2022-08-03T01:51:26;100483.91;;;20.33;49.03
55685;BME280;41883;49.544;8.646;2022-08-03T01:53:53;100481.25;;;20.27;48.83
55685;BME280;41883;49.544;8.646;2022-08-03T01:56:23;100481.50;;;20.19;50.16
55685;BME280;41883;49.544;8.646;2022-08-03T01:58:54;100478.03;;;20.11;49.80
55685;BME280;41883;49.544;8.646;2022-08-03T02:01:23;100476.66;;;20.02;50.66
55685;BME280;41883;49.544;8.646;2022-08-03T02:03:51;100470.28;;;19.97;50.88
55685;BME280;41883;49.544;8.646;2022-08-03T02:06:19;100473.59;;;19.92;51.05
55685;BME280;41883;49.544;8.646;2022-08-03T02:08:47;100476.28;;;19.92;50.56
55685;BME280;41883;49.544;8.646;2022-08-03T02:11:16;100473.22;;;19.88;51.21
55685;BME280;41883;49.544;8.646;2022-08-03T02:13:43;100471.19;;;19.84;51.18
55685;BME280;41883;49.544;8.646;2022-08-03T02:16:13;100479.44;;;19.82;51.36
55685;BME280;41883;49.544;8.646;2022-08-03T02:18:42;100475.31;;;19.80;50.99
55685;BME280;41883;49.544;8.646;2022-08-03T02:21:09;100480.50;;;19.81;51.17
55685;BME280;41883;49.544;8.646;2022-08-03T02:23:37;100476.75;;;19.82;50.97
55685;BME280;41883;49.544;8.646;2022-08-03T02:26:05;100471.63;;;19.81;51.26
55685;BME280;41883;49.544;8.646;2022-08-03T02:28:39;100476.13;;;19.87;50.72
55685;BME280;41883;49.544;8.646;2022-08-03T02:31:12;100471.53;;;19.94;50.67
55685;BME280;41883;49.544;8.646;2022-08-03T02:33:42;100476.88;;;20.01;50.36
55685;BME280;41883;49.544;8.646;2022-08-03T02:36:10;100466.75;;;20.03;49.94
55685;BME280;41883;49.544;8.646;2022-08-03T02:38:40;100464.88;;;20.03;50.24
55685;BME280;41883;49.544;8.646;2022-08-03T02:41:14;100471.88;;;20.04;50.15
55685;BME280;41883;49.544;8.646;2022-08-03T02:43:43;100469.44;;;20.03;49.99
55685;BME280;41883;49.544;8.646;2022-08-03T02:46:13;100472.75;;;19.98;50.22
55685;BME280;41883;49.544;8.646;2022-08-03T02:48:43;100467.84;;;19.95;50.23
55685;BME280;41883;49.544;8.646;2022-08-03T02:51:11;100473.84;;;19.90;50.44
55685;BME280;41883;49.544;8.646;2022-08-03T02:53:38;100471.38;;;19.82;50.43
55685;BME280;41883;49.544;8.646;2022-08-03T02:56:06;100471.22;;;19.77;50.46
55685;BME280;41883;49.544;8.646;2022-08-03T02:58:33;100468.78;;;19.69;50.62
55685;BME280;41883;49.544;8.646;2022-08-03T03:01:01;100470.41;;;19.63;50.42
55685;BME280;41883;49.544;8.646;2022-08-03T03:03:28;100464.44;;;19.61;50.64
55685;BME280;41883;49.544;8.646;2022-08-03T03:05:55;100469.78;;;19.61;50.60
55685;BME280;41883;49.544;8.646;2022-08-03T03:08:24;100464.66;;;19.60;50.42
55685;BME280;41883;49.544;8.646;2022-08-03T03:10:52;100459.69;;;19.57;50.80
55685;BME280;41883;49.544;8.646;2022-08-03T03:13:20;100457.66;;;19.52;51.03
55685;BME280;41883;49.544;8.646;2022-08-03T03:15:47;100454.38;;;19.50;50.83
55685;BME280;41883;49.544;8.646;2022-08-03T03:18:15;100458.09;;;19.42;51.00
55685;BME280;41883;49.544;8.646;2022-08-03T03:20:42;100462.91;;;19.34;51.10
55685;BME280;41883;49.544;8.646;2022-08-03T03:23:10;100468.28;;;19.27;51.34
55685;BME280;41883;49.544;8.646;2022-08-03T03:25:38;100464.59;;;19.21;51.45
55685;BME280;41883;49.544;8.646;2022-08-03T03:28:04;100466.22;;;19.16;51.88
55685;BME280;41883;49.544;8.646;2022-08-03T03:30:30;100460.28;;;19.07;52.29
55685;BME280;41883;49.544;8.646;2022-08-03T03:32:57;100464.84;;;19.00;52.81
55685;BME280;41883;49.544;8.646;2022-08-03T03:35:24;100465.84;;;18.92;52.66
55685;BME280;41883;49.544;8.646;2022-08-03T03:37:51;100462.34;;;18.85;53.02
55685;BME280;41883;49.544;8.646;2022-08-03T03:40:17;100459.72;;;18.78;53.67
55685;BME280;41883;49.544;8.646;2022-08-03T03:42:44;100467.72;;;18.72;54.18
55685;BME280;41883;49.544;8.646;2022-08-03T03:45:11;100465.66;;;18.67;54.46
55685;BME280;41883;49.544;8.646;2022-08-03T03:47:38;100460.91;;;18.62;54.62
55685;BME280;41883;49.544;8.646;2022-08-03T03:50:05;100477.19;;;18.67;54.67
55685;BME280;41883;49.544;8.646;2022-08-03T03:52:32;100461.94;;;18.75;54.17
55685;BME280;41883;49.544;8.646;2022-08-03T03:54:59;100461.53;;;18.84;53.78
55685;BME280;41883;49.544;8.646;2022-08-03T03:57:24;100459.47;;;19.00;53.12
55685;BME280;41883;49.544;8.646;2022-08-03T03:59:50;100467.28;;;19.15;53.21
55685;BME280;41883;49.544;8.646;2022-08-03T04:02:17;100470.13;;;19.26;52.54
55685;BME280;41883;49.544;8.646;2022-08-03T04:04:43;100468.25;;;19.34;52.40
55685;BME280;41883;49.544;8.646;2022-08-03T04:07:33;100467.44;;;19.33;52.41
55685;BME280;41883;49.544;8.646;2022-08-03T04:10:22;100472.16;;;19.38;52.28
55685;BME280;41883;49.544;8.646;2022-08-03T04:13:09;100469.69;;;19.43;52.69
55685;BME280;41883;49.544;8.646;2022-08-03T04:15:38;100475.44;;;19.46;52.12
55685;BME280;41883;49.544;8.646;2022-08-03T04:18:05;100477.09;;;19.41;52.99
55685;BME280;41883;49.544;8.646;2022-08-03T04:20:34;100476.91;;;19.36;53.35
55685;BME280;41883;49.544;8.646;2022-08-03T04:23:01;100477.13;;;19.34;53.19
55685;BME280;41883;49.544;8.646;2022-08-03T04:25:33;100474.25;;;19.36;53.48
55685;BME280;41883;49.544;8.646;2022-08-03T04:28:02;100475.63;;;19.45;52.49
55685;BME280;41883;49.544;8.646;2022-08-03T04:30:31;100482.63;;;19.52;52.25
55685;BME280;41883;49.544;8.646;2022-08-03T04:32:58;100474.16;;;19.56;52.39
55685;BME280;41883;49.544;8.646;2022-08-03T04:35:32;100470.03;;;19.60;52.15
55685;BME280;41883;49.544;8.646;2022-08-03T04:38:02;100484.44;;;19.65;52.06
55685;BME280;41883;49.544;8.646;2022-08-03T04:40:36;100491.88;;;19.70;51.85
55685;BME280;41883;49.544;8.646;2022-08-03T04:43:05;100492.94;;;19.69;52.34
55685;BME280;41883;49.544;8.646;2022-08-03T04:45:33;100491.06;;;19.69;52.26
55685;BME280;41883;49.544;8.646;2022-08-03T04:48:00;100484.88;;;19.69;52.74
55685;BME280;41883;49.544;8.646;2022-08-03T04:50:27;100484.88;;;19.69;53.22
55685;BME280;41883;49.544;8.646;2022-08-03T04:52:54;100489.63;;;19.73;52.67
55685;BME280;41883;49.544;8.646;2022-08-03T04:55:27;100492.47;;;19.79;52.52
55685;BME280;41883;49.544;8.646;2022-08-03T04:57:57;100494.31;;;19.78;52.94
55685;BME280;41883;49.544;8.646;2022-08-03T05:00:24;100495.53;;;19.82;52.58
55685;BME280;41883;49.544;8.646;2022-08-03T05:02:51;100487.03;;;19.92;52.59
55685;BME280;41883;49.544;8.646;2022-08-03T05:05:22;100487.19;;;19.97;52.43
55685;BME280;41883;49.544;8.646;2022-08-03T05:07:49;100488.88;;;19.98;52.61
55685;BME280;41883;49.544;8.646;2022-08-03T05:10:15;100481.81;;;20.04;52.64
55685;BME280;41883;49.544;8.646;2022-08-03T05:12:43;100486.94;;;20.12;52.52
55685;BME280;41883;49.544;8.646;2022-08-03T05:15:10;100486.50;;;20.15;52.73
55685;BME280;41883;49.544;8.646;2022-08-03T05:17:37;100491.84;;;20.22;52.83
55685;BME280;41883;49.544;8.646;2022-08-03T05:20:04;100482.91;;;20.28;52.73
55685;BME280;41883;49.544;8.646;2022-08-03T05:22:30;100485.34;;;20.36;52.67
55685;BME280;41883;49.544;8.646;2022-08-03T05:24:56;100487.09;;;20.49;52.32
55685;BME280;41883;49.544;8.646;2022-08-03T05:27:23;100495.47;;;20.66;51.63
55685;BME280;41883;49.544;8.646;2022-08-03T05:29:50;100503.75;;;20.89;51.29
55685;BME280;41883;49.544;8.646;2022-08-03T05:32:16;100488.56;;;21.20;50.47
55685;BME280;41883;49.544;8.646;2022-08-03T05:34:43;100491.66;;;21.60;49.69
55685;BME280;41883;49.544;8.646;2022-08-03T05:37:09;100493.00;;;22.00;48.62
55685;BME280;41883;49.544;8.646;2022-08-03T05:39:35;100493.53;;;22.39;47.99
55685;BME280;41883;49.544;8.646;2022-08-03T05:42:02;100494.53;;;22.80;47.35
55685;BME280;41883;49.544;8.646;2022-08-03T05:44:28;100498.91;;;23.16;46.11
55685;BME280;41883;49.544;8.646;2022-08-03T05:46:55;100501.53;;;23.63;46.10
55685;BME280;41883;49.544;8.646;2022-08-03T05:49:22;100504.72;;;24.01;45.33
55685;BME280;41883;49.544;8.646;2022-08-03T05:51:48;100497.84;;;24.38;44.28
55685;BME280;41883;49.544;8.646;2022-08-03T05:54:17;100506.63;;;24.96;43.61
55685;BME280;41883;49.544;8.646;2022-08-03T05:56:42;100507.94;;;25.28;43.68
55685;BME280;41883;49.544;8.646;2022-08-03T05:59:08;100507.00;;;25.61;42.31
55685;BME280;41883;49.544;8.646;2022-08-03T06:01:33;100503.84;;;25.69;40.03
55685;BME280;41883;49.544;8.646;2022-08-03T06:03:59;100504.47;;;25.76;40.31
55685;BME280;41883;49.544;8.646;2022-08-03T06:06:25;100514.63;;;26.08;40.60
55685;BME280;41883;49.544;8.646;2022-08-03T06:08:56;100503.34;;;26.48;40.62
55685;BME280;41883;49.544;8.646;2022-08-03T06:11:22;100505.63;;;26.94;39.84
55685;BME280;41883;49.544;8.646;2022-08-03T06:13:49;100504.97;;;27.19;38.87
55685;BME280;41883;49.544;8.646;2022-08-03T06:16:15;100511.06;;;27.37;37.89
55685;BME280;41883;49.544;8.646;2022-08-03T06:18:41;100505.44;;;27.53;37.54
55685;BME280;41883;49.544;8.646;2022-08-03T06:21:08;100510.16;;;27.84;37.72
55685;BME280;41883;49.544;8.646;2022-08-03T06:23:35;100503.50;;;28.27;37.59
55685;BME280;41883;49.544;8.646;2022-08-03T06:26:04;100496.72;;;28.61;36.37
55685;BME280;41883;49.544;8.646;2022-08-03T06:28:33;100504.31;;;28.94;36.48
55685;BME280;41883;49.544;8.646;2022-08-03T06:31:00;100503.44;;;29.19;36.32
55685;BME280;41883;49.544;8.646;2022-08-03T06:33:26;100505.31;;;29.39;36.39
55685;BME280;41883;49.544;8.646;2022-08-03T06:35:54;100502.53;;;29.50;34.97
55685;BME280;41883;49.544;8.646;2022-08-03T06:38:20;100503.31;;;29.55;35.01
55685;BME280;41883;49.544;8.646;2022-08-03T06:40:46;100504.38;;;29.75;34.84
55685;BME280;41883;49.544;8.646;2022-08-03T06:43:12;100510.47;;;30.06;34.88
55685;BME280;41883;49.544;8.646;2022-08-03T06:45:40;100509.59;;;30.16;34.12
55685;BME280;41883;49.544;8.646;2022-08-03T06:48:10;100510.59;;;30.30;33.84
55685;BME280;41883;49.544;8.646;2022-08-03T06:50:38;100521.16;;;30.42;33.55
55685;BME280;41883;49.544;8.646;2022-08-03T06:53:06;100518.19;;;30.73;33.70
55685;BME280;41883;49.544;8.646;2022-08-03T06:55:33;100516.22;;;31.07;33.36
55685;BME280;41883;49.544;8.646;2022-08-03T06:58:00;100517.03;;;31.32;32.82
55685;BME280;41883;49.544;8.646;2022-08-03T07:00:26;100516.69;;;31.39;32.27
55685;BME280;41883;49.544;8.646;2022-08-03T07:02:53;100522.28;;;31.28;30.94
55685;BME280;41883;49.544;8.646;2022-08-03T07:05:19;100524.13;;;31.33;31.73
55685;BME280;41883;49.544;8.646;2022-08-03T07:07:47;100514.19;;;31.66;31.72
55685;BME280;41883;49.544;8.646;2022-08-03T07:10:14;100516.22;;;31.99;30.95
55685;BME280;41883;49.544;8.646;2022-08-03T07:12:40;100518.75;;;32.14;30.74
55685;BME280;41883;49.544;8.646;2022-08-03T07:15:07;100520.66;;;32.32;29.90
55685;BME280;41883;49.544;8.646;2022-08-03T07:17:34;100521.72;;;32.69;29.29
55685;BME280;41883;49.544;8.646;2022-08-03T07:20:04;100522.75;;;32.73;29.75
55685;BME280;41883;49.544;8.646;2022-08-03T07:22:31;100519.34;;;32.95;29.67
55685;BME280;41883;49.544;8.646;2022-08-03T07:24:57;100530.03;;;33.11;29.38
55685;BME280;41883;49.544;8.646;2022-08-03T07:27:23;100515.94;;;33.31;29.67
55685;BME280;41883;49.544;8.646;2022-08-03T07:29:51;100525.66;;;33.51;28.98
55685;BME280;41883;49.544;8.646;2022-08-03T07:32:17;100522.34;;;33.40;28.97
55685;BME280;41883;49.544;8.646;2022-08-03T07:34:43;100520.41;;;33.69;29.23
55685;BME280;41883;49.544;8.646;2022-08-03T07:37:09;100533.88;;;33.93;28.91
55685;BME280;41883;49.544;8.646;2022-08-03T07:39:38;100524.63;;;34.25;28.43
55685;BME280;41883;49.544;8.646;2022-08-03T07:42:04;100525.09;;;34.63;27.88
55685;BME280;41883;49.544;8.646;2022-08-03T07:44:30;100516.47;;;34.79;27.18
55685;BME280;41883;49.544;8.646;2022-08-03T07:46:56;100523.56;;;34.80;26.80
55685;BME280;41883;49.544;8.646;2022-08-03T07:49:22;100522.75;;;35.02;26.60
55685;BME280;41883;49.544;8.646;2022-08-03T07:51:47;100520.75;;;34.94;26.39
55685;BME280;41883;49.544;8.646;2022-08-03T07:54:33;100519.28;;;35.27;26.05
55685;BME280;41883;49.544;8.646;2022-08-03T07:56:59;100520.59;;;35.30;25.67
55685;BME280;41883;49.544;8.646;2022-08-03T07:59:27;100521.19;;;35.18;25.85
55685;BME280;41883;49.544;8.646;2022-08-03T08:01:54;100529.06;;;35.42;25.83
55685;BME280;41883;49.544;8.646;2022-08-03T08:04:20;100518.78;;;35.74;25.63
55685;BME280;41883;49.544;8.646;2022-08-03T08:06:47;100515.25;;;36.00;25.28
55685;BME280;41883;49.544;8.646;2022-08-03T08:09:13;100524.00;;;36.36;24.39
55685;BME280;41883;49.544;8.646;2022-08-03T08:11:41;100521.81;;;36.86;23.83
55685;BME280;41883;49.544;8.646;2022-08-03T08:14:07;100515.47;;;37.32;23.68
55685;BME280;41883;49.544;8.646;2022-08-03T08:16:34;100511.81;;;37.79;23.47
55685;BME280;41883;49.544;8.646;2022-08-03T08:19:00;100508.84;;;37.84;23.02
55685;BME280;41883;49.544;8.646;2022-08-03T08:21:27;100505.34;;;37.96;22.85
55685;BME280;41883;49.544;8.646;2022-08-03T08:23:54;100504.13;;;38.27;21.77
55685;BME280;41883;49.544;8.646;2022-08-03T08:26:20;100502.19;;;38.06;22.20
55685;BME280;41883;49.544;8.646;2022-08-03T08:28:46;100509.09;;;38.33;21.67
55685;BME280;41883;49.544;8.646;2022-08-03T08:31:12;100501.53;;;38.88;21.41
55685;BME280;41883;49.544;8.646;2022-08-03T08:33:38;100495.81;;;39.05;21.23
55685;BME280;41883;49.544;8.646;2022-08-03T08:36:04;100501.34;;;38.93;21.40
55685;BME280;41883;49.544;8.646;2022-08-03T08:38:30;100505.13;;;39.13;20.99
55685;BME280;41883;49.544;8.646;2022-08-03T08:40:57;100495.91;;;39.58;21.08
55685;BME280;41883;49.544;8.646;2022-08-03T08:43:23;100493.41;;;39.94;20.78
55685;BME280;41883;49.544;8.646;2022-08-03T08:45:53;100499.41;;;39.96;20.13
55685;BME280;41883;49.544;8.646;2022-08-03T08:48:24;100499.00;;;40.09;20.63
55685;BME280;41883;49.544;8.646;2022-08-03T08:50:52;100491.31;;;40.47;19.87
55685;BME280;41883;49.544;8.646;2022-08-03T08:53:20;100487.84;;;40.66;19.68
55685;BME280;41883;49.544;8.646;2022-08-03T08:55:47;100490.84;;;40.73;19.12
55685;BME280;41883;49.544;8.646;2022-08-03T08:58:15;100485.72;;;41.07;19.35
55685;BME280;41883;49.544;8.646;2022-08-03T09:00:44;100481.91;;;41.82;18.93
55685;BME280;41883;49.544;8.646;2022-08-03T09:03:13;100486.16;;;42.15;18.43
55685;BME280;41883;49.544;8.646;2022-08-03T09:05:43;100476.72;;;42.00;18.18
55685;BME280;41883;49.544;8.646;2022-08-03T09:08:09;100480.63;;;41.95;17.40
55685;BME280;41883;49.544;8.646;2022-08-03T09:10:36;100488.63;;;42.39;17.58
55685;BME280;41883;49.544;8.646;2022-08-03T09:13:03;100485.03;;;43.08;17.39
55685;BME280;41883;49.544;8.646;2022-08-03T09:15:31;100487.34;;;43.59;16.90
55685;BME280;41883;49.544;8.646;2022-08-03T09:17:59;100485.53;;;44.01;16.71
55685;BME280;41883;49.544;8.646;2022-08-03T09:20:30;100482.34;;;44.40;15.75
55685;BME280;41883;49.544;8.646;2022-08-03T09:25:31;100485.78;;;44.67;15.73
55685;BME280;41883;49.544;8.646;2022-08-03T09:28:11;100481.59;;;44.87;15.13
55685;BME280;41883;49.544;8.646;2022-08-03T09:30:42;100486.66;;;45.23;15.17
55685;BME280;41883;49.544;8.646;2022-08-03T09:33:11;100484.59;;;45.93;14.95
55685;BME280;41883;49.544;8.646;2022-08-03T09:35:45;100481.13;;;46.28;14.38
55685;BME280;41883;49.544;8.646;2022-08-03T09:38:18;100483.97;;;46.78;14.40
55685;BME280;41883;49.544;8.646;2022-08-03T09:40:49;100479.56;;;47.10;13.77
55685;BME280;41883;49.544;8.646;2022-08-03T09:43:15;100475.94;;;47.13;13.13
55685;BME280;41883;49.544;8.646;2022-08-03T09:45:42;100470.34;;;46.91;13.68
55685;BME280;41883;49.544;8.646;2022-08-03T09:48:22;100468.38;;;46.81;13.28
55685;BME280;41883;49.544;8.646;2022-08-03T09:50:56;100461.56;;;46.57;13.90
55685;BME280;41883;49.544;8.646;2022-08-03T09:53:24;100464.38;;;46.86;13.31
55685;BME280;41883;49.544;8.646;2022-08-03T09:58:23;100468.69;;;47.37;13.17
55685;BME280;41883;49.544;8.646;2022-08-03T10:03:22;100463.72;;;47.80;12.51
55685;BME280;41883;49.544;8.646;2022-08-03T10:05:49;100463.31;;;47.85;12.61
55685;BME280;41883;49.544;8.646;2022-08-03T10:08:18;100471.16;;;48.12;12.56
55685;BME280;41883;49.544;8.646;2022-08-03T10:10:46;100463.50;;;48.72;12.58
55685;BME280;41883;49.544;8.646;2022-08-03T10:13:14;100460.53;;;48.90;12.19
55685;BME280;41883;49.544;8.646;2022-08-03T10:15:41;100461.63;;;49.41;12.15
55685;BME280;41883;49.544;8.646;2022-08-03T10:18:07;100461.66;;;49.99;11.85
55685;BME280;41883;49.544;8.646;2022-08-03T10:20:37;100457.16;;;50.05;11.57
55685;BME280;41883;49.544;8.646;2022-08-03T10:23:07;100455.59;;;49.73;11.43
55685;BME280;41883;49.544;8.646;2022-08-03T10:25:34;100454.91;;;49.66;11.38
55685;BME280;41883;49.544;8.646;2022-08-03T10:28:03;100458.47;;;49.36;11.68
55685;BME280;41883;49.544;8.646;2022-08-03T10:30:32;100443.69;;;48.90;11.71
55685;BME280;41883;49.544;8.646;2022-08-03T10:33:26;100444.88;;;48.93;11.84
55685;BME280;41883;49.544;8.646;2022-08-03T10:35:53;100444.06;;;49.34;11.93
55685;BME280;41883;49.544;8.646;2022-08-03T10:38:28;100443.28;;;49.64;11.99
55685;BME280;41883;49.544;8.646;2022-08-03T10:40:54;100436.69;;;50.05;11.78
55685;BME280;41883;49.544;8.646;2022-08-03T10:43:35;100434.69;;;50.05;11.63
55685;BME280;41883;49.544;8.646;2022-08-03T10:46:07;100433.81;;;50.35;10.83
55685;BME280;41883;49.544;8.646;2022-08-03T10:48:34;100418.53;;;50.09;11.26
55685;BME280;41883;49.544;8.646;2022-08-03T10:51:01;100412.63;;;50.51;11.52
55685;BME280;41883;49.544;8.646;2022-08-03T10:53:39;100422.16;;;50.33;11.35
55685;BME280;41883;49.544;8.646;2022-08-03T10:59:18;100411.81;;;50.27;11.77
55685;BME280;41883;49.544;8.646;2022-08-03T11:01:54;100416.16;;;50.31;11.67
55685;BME280;41883;49.544;8.646;2022-08-03T11:04:24;100411.06;;;50.50;11.07
55685;BME280;41883;49.544;8.646;2022-08-03T11:09:42;100411.72;;;50.57;11.21
55685;BME280;41883;49.544;8.646;2022-08-03T11:12:30;100413.41;;;51.18;11.06
55685;BME280;41883;49.544;8.646;2022-08-03T11:15:04;100413.44;;;51.55;11.00
55685;BME280;41883;49.544;8.646;2022-08-03T11:17:32;100414.75;;;51.50;10.74
55685;BME280;41883;49.544;8.646;2022-08-03T11:19:59;100399.44;;;50.68;10.88
55685;BME280;41883;49.544;8.646;2022-08-03T11:22:25;100390.56;;;50.49;11.25
55685;BME280;41883;49.544;8.646;2022-08-03T11:25:11;100401.91;;;51.29;11.44
55685;BME280;41883;49.544;8.646;2022-08-03T11:27:39;100399.44;;;51.68;10.25
55685;BME280;41883;49.544;8.646;2022-08-03T11:30:08;100402.25;;;51.68;9.94
55685;BME280;41883;49.544;8.646;2022-08-03T11:38:04;100389.81;;;51.85;10.55
55685;BME280;41883;49.544;8.646;2022-08-03T11:46:16;100381.06;;;52.91;9.00
55685;BME280;41883;49.544;8.646;2022-08-03T11:48:44;100383.53;;;53.01;9.53
55685;BME280;41883;49.544;8.646;2022-08-03T11:51:26;100383.75;;;52.94;9.32
55685;BME280;41883;49.544;8.646;2022-08-03T11:54:01;100381.25;;;52.38;9.30
55685;BME280;41883;49.544;8.646;2022-08-03T11:56:51;100379.00;;;52.78;9.36
55685;BME280;41883;49.544;8.646;2022-08-03T11:59:16;100375.31;;;53.62;9.12
55685;BME280;41883;49.544;8.646;2022-08-03T12:01:43;100369.03;;;53.16;9.31
55685;BME280;41883;49.544;8.646;2022-08-03T12:04:10;100368.13;;;52.77;9.04
55685;BME280;41883;49.544;8.646;2022-08-03T12:06:36;100361.63;;;52.93;9.19
55685;BME280;41883;49.544;8.646;2022-08-03T12:09:21;100361.81;;;53.27;8.71
55685;BME280;41883;49.544;8.646;2022-08-03T12:11:50;100357.28;;;53.17;8.37
55685;BME280;41883;49.544;8.646;2022-08-03T12:14:17;100355.47;;;53.11;8.97
55685;BME280;41883;49.544;8.646;2022-08-03T12:16:47;100353.13;;;52.63;8.81
55685;BME280;41883;49.544;8.646;2022-08-03T12:19:14;100349.59;;;51.65;9.56
55685;BME280;41883;49.544;8.646;2022-08-03T12:21:47;100351.78;;;49.86;10.76
55685;BME280;41883;49.544;8.646;2022-08-03T12:24:15;100342.19;;;47.45;12.05
55685;BME280;41883;49.544;8.646;2022-08-03T12:26:46;100333.06;;;45.15;13.74
55685;BME280;41883;49.544;8.646;2022-08-03T12:29:20;100342.19;;;44.43;14.32
55685;BME280;41883;49.544;8.646;2022-08-03T12:31:47;100342.00;;;44.21;14.52
55685;BME280;41883;49.544;8.646;2022-08-03T12:34:13;100335.63;;;43.80;15.22
55685;BME280;41883;49.544;8.646;2022-08-03T12:36:54;100337.25;;;42.87;15.79
55685;BME280;41883;49.544;8.646;2022-08-03T12:39:25;100338.31;;;42.52;16.05
55685;BME280;41883;49.544;8.646;2022-08-03T12:41:55;100335.91;;;42.27;16.25
55685;BME280;41883;49.544;8.646;2022-08-03T12:44:32;100346.56;;;41.59;16.37
55685;BME280;41883;49.544;8.646;2022-08-03T12:47:02;100334.38;;;41.25;16.70
55685;BME280;41883;49.544;8.646;2022-08-03T12:49:44;100336.88;;;40.95;17.12
55685;BME280;41883;49.544;8.646;2022-08-03T12:52:09;100336.94;;;40.79;17.26
55685;BME280;41883;49.544;8.646;2022-08-03T12:54:36;100331.22;;;40.56;17.77
55685;BME280;41883;49.544;8.646;2022-08-03T12:59:38;100318.44;;;40.04;18.75
55685;BME280;41883;49.544;8.646;2022-08-03T13:02:27;100320.81;;;39.89;18.78
55685;BME280;41883;49.544;8.646;2022-08-03T13:04:54;100328.84;;;39.79;19.08
55685;BME280;41883;49.544;8.646;2022-08-03T13:07:21;100322.38;;;39.75;18.95
55685;BME280;41883;49.544;8.646;2022-08-03T13:09:54;100324.84;;;39.64;18.59
55685;BME280;41883;49.544;8.646;2022-08-03T13:12:22;100320.16;;;39.36;18.74
55685;BME280;41883;49.544;8.646;2022-08-03T13:14:55;100324.19;;;39.26;19.38
55685;BME280;41883;49.544;8.646;2022-08-03T13:17:22;100316.94;;;39.22;19.29
55685;BME280;41883;49.544;8.646;2022-08-03T13:19:49;100319.78;;;38.60;19.26
55685;BME280;41883;49.544;8.646;2022-08-03T13:22:18;100308.28;;;38.46;19.69
55685;BME280;41883;49.544;8.646;2022-08-03T13:24:47;100312.75;;;38.38;19.83
55685;BME280;41883;49.544;8.646;2022-08-03T13:27:14;100308.50;;;38.29;20.13
55685;BME280;41883;49.544;8.646;2022-08-03T13:29:41;100314.00;;;38.16;20.02
55685;BME280;41883;49.544;8.646;2022-08-03T13:32:08;100312.16;;;38.08;20.24
55685;BME280;41883;49.544;8.646;2022-08-03T13:34:34;100306.59;;;37.96;20.55
55685;BME280;41883;49.544;8.646;2022-08-03T13:37:01;100307.34;;;37.84;21.08
55685;BME280;41883;49.544;8.646;2022-08-03T13:39:27;100303.56;;;37.76;21.41